createdAt,value
2018-01-24T00:00:02.540Z,988.36
2018-01-24T00:01:02.492Z,988.38
2018-01-24T00:02:02.440Z,988.39
2018-01-24T00:03:02.435Z,988.39
2018-01-24T00:04:02.353Z,988.35
2018-01-24T00:05:02.310Z,988.34
2018-01-24T00:06:02.282Z,988.27
2018-01-24T00:07:02.230Z,988.30
2018-01-24T00:08:02.197Z,988.29
2018-01-24T00:09:02.161Z,988.28
2018-01-24T00:10:02.136Z,988.27
2018-01-24T00:11:02.061Z,988.30
2018-01-24T00:12:02.036Z,988.38
2018-01-24T00:13:01.979Z,988.34
2018-01-24T00:14:01.962Z,988.35
2018-01-24T00:15:01.883Z,988.36
2018-01-24T00:16:01.852Z,988.36
2018-01-24T00:17:01.818Z,988.35
2018-01-24T00:18:01.781Z,988.40
2018-01-24T00:19:01.713Z,988.38
2018-01-24T00:20:01.685Z,988.43
2018-01-24T00:21:01.639Z,988.44
2018-01-24T00:22:01.590Z,988.43
2018-01-24T00:23:01.555Z,988.43
2018-01-24T00:24:01.497Z,988.44
2018-01-24T00:25:01.448Z,988.46
2018-01-24T00:26:01.406Z,988.45
2018-01-24T00:27:01.362Z,988.43
2018-01-24T00:28:01.310Z,988.36
2018-01-24T00:29:01.279Z,988.41
2018-01-24T00:30:01.244Z,988.37
2018-01-24T00:31:01.197Z,988.37
2018-01-24T00:32:01.150Z,988.32
2018-01-24T00:33:01.112Z,988.32
2018-01-24T00:34:01.078Z,988.33
2018-01-24T00:35:01.027Z,988.39
2018-01-24T00:36:00.979Z,988.32
2018-01-24T00:37:00.927Z,988.37
2018-01-24T00:38:00.878Z,988.33
2018-01-24T00:39:00.831Z,988.36
2018-01-24T00:40:00.822Z,988.35
2018-01-24T00:41:00.766Z,988.32
2018-01-24T00:42:00.728Z,988.36
2018-01-24T00:43:00.663Z,988.32
2018-01-24T00:44:00.636Z,988.37
2018-01-24T00:45:00.572Z,988.34
2018-01-24T00:46:00.551Z,988.38
2018-01-24T00:47:00.523Z,988.36
2018-01-24T00:48:00.447Z,988.33
2018-01-24T00:49:00.411Z,988.28
2018-01-24T00:50:00.414Z,988.30
2018-01-24T00:51:00.320Z,988.30
2018-01-24T00:52:00.277Z,988.26
2018-01-24T00:53:00.230Z,988.28
2018-01-24T00:54:00.185Z,988.31
2018-01-24T00:55:00.173Z,988.32
2018-01-24T00:56:00.111Z,988.25
2018-01-24T00:57:00.055Z,988.25
2018-01-24T00:58:00.021Z,988.24
2018-01-24T00:58:59.999Z,988.21
2018-01-24T00:59:59.948Z,988.18
2018-01-24T01:00:59.887Z,988.23
2018-01-24T01:01:59.848Z,988.22
2018-01-24T01:02:59.819Z,988.15
2018-01-24T01:03:59.753Z,988.12
2018-01-24T01:04:59.699Z,988.14
2018-01-24T01:05:59.660Z,988.13
2018-01-24T01:06:59.644Z,988.11
2018-01-24T01:07:59.583Z,988.10
2018-01-24T01:08:59.556Z,988.10
2018-01-24T01:09:59.570Z,988.12
2018-01-24T01:10:59.468Z,988.17
2018-01-24T01:11:59.413Z,988.18
2018-01-24T01:12:59.358Z,988.19
2018-01-24T01:13:59.305Z,988.20
2018-01-24T01:14:59.279Z,988.19
2018-01-24T01:15:59.256Z,988.19
2018-01-24T01:16:59.212Z,988.18
2018-01-24T01:17:59.196Z,988.18
2018-01-24T01:18:59.093Z,988.18
2018-01-24T01:19:59.070Z,988.22
2018-01-24T01:20:59.027Z,988.20
2018-01-24T01:21:58.984Z,988.12
2018-01-24T01:22:58.936Z,988.09
2018-01-24T01:23:58.887Z,988.10
2018-01-24T01:24:58.853Z,988.07
2018-01-24T01:25:58.794Z,988.11
2018-01-24T01:26:58.781Z,988.13
2018-01-24T01:27:58.721Z,988.20
2018-01-24T01:28:58.660Z,988.25
2018-01-24T01:29:58.619Z,988.25
2018-01-24T01:30:58.597Z,988.31
2018-01-24T01:31:58.545Z,988.32
2018-01-24T01:32:58.508Z,988.29
2018-01-24T01:33:58.454Z,988.31
2018-01-24T01:34:58.428Z,988.31
2018-01-24T01:35:58.361Z,988.28
2018-01-24T01:36:58.345Z,988.27
2018-01-24T01:37:58.283Z,988.36
2018-01-24T01:38:58.289Z,988.37
2018-01-24T01:39:58.201Z,988.33
2018-01-24T01:40:58.153Z,988.38
2018-01-24T01:41:58.103Z,988.39
2018-01-24T01:42:58.067Z,988.33
2018-01-24T01:43:58.025Z,988.30
2018-01-24T01:44:58.006Z,988.28
2018-01-24T01:45:57.955Z,988.35
2018-01-24T01:46:57.896Z,988.26
2018-01-24T01:47:57.843Z,988.30
2018-01-24T01:48:57.803Z,988.28
2018-01-24T01:49:57.760Z,988.29
2018-01-24T01:50:57.714Z,988.31
2018-01-24T01:51:57.668Z,988.33
2018-01-24T01:52:57.627Z,988.34
2018-01-24T01:53:57.587Z,988.32
2018-01-24T01:54:57.560Z,988.34
2018-01-24T01:55:57.513Z,988.33
2018-01-24T01:56:57.457Z,988.32
2018-01-24T01:57:57.418Z,988.29
2018-01-24T01:58:57.400Z,988.31
2018-01-24T01:59:57.320Z,988.24
2018-01-24T02:00:57.306Z,988.22
2018-01-24T02:01:57.256Z,988.18
2018-01-24T02:02:57.189Z,988.16
2018-01-24T02:03:57.156Z,988.14
2018-01-24T02:04:57.127Z,988.19
2018-01-24T02:05:57.054Z,988.13
2018-01-24T02:06:57.023Z,988.21
2018-01-24T02:07:57.013Z,988.16
2018-01-24T02:08:56.977Z,988.17
2018-01-24T02:09:56.917Z,988.16
2018-01-24T02:10:56.867Z,988.14
2018-01-24T02:11:56.801Z,988.19
2018-01-24T02:12:56.773Z,988.20
2018-01-24T02:13:56.728Z,988.19
2018-01-24T02:14:56.689Z,988.24
2018-01-24T02:15:56.669Z,988.24
2018-01-24T02:16:56.587Z,988.21
2018-01-24T02:17:56.550Z,988.21
2018-01-24T02:18:56.511Z,988.24
2018-01-24T02:19:56.473Z,988.16
2018-01-24T02:20:56.452Z,988.21
2018-01-24T02:21:56.394Z,988.17
2018-01-24T02:22:56.339Z,988.21
2018-01-24T02:23:56.283Z,988.16
2018-01-24T02:24:56.258Z,988.16
2018-01-24T02:25:56.204Z,988.14
2018-01-24T02:26:56.167Z,988.17
2018-01-24T02:27:56.097Z,988.25
2018-01-24T02:28:56.081Z,988.25
2018-01-24T02:29:56.021Z,988.30
2018-01-24T02:30:55.978Z,988.32
2018-01-24T02:31:55.933Z,988.33
2018-01-24T02:32:55.903Z,988.31
2018-01-24T02:33:55.835Z,988.16
2018-01-24T02:34:55.822Z,988.13
2018-01-24T02:35:55.774Z,988.09
2018-01-24T02:36:55.738Z,988.11
2018-01-24T02:37:55.670Z,988.11
2018-01-24T02:38:55.658Z,988.15
2018-01-24T02:39:55.610Z,988.12
2018-01-24T02:40:55.559Z,988.10
2018-01-24T02:41:55.530Z,988.11
2018-01-24T02:42:55.445Z,988.11
2018-01-24T02:43:55.430Z,988.10
2018-01-24T02:44:55.430Z,988.13
2018-01-24T02:45:55.364Z,988.11
2018-01-24T02:46:55.300Z,988.11
2018-01-24T02:47:55.282Z,988.06
2018-01-24T02:48:55.223Z,988.03
2018-01-24T02:49:55.155Z,988.07
2018-01-24T02:50:55.217Z,988.07
2018-01-24T02:51:55.083Z,988.11
2018-01-24T02:52:55.056Z,988.13
2018-01-24T02:53:55.304Z,988.15
2018-01-24T02:54:54.954Z,988.18
2018-01-24T02:55:54.912Z,988.13
2018-01-24T02:56:54.883Z,988.17
2018-01-24T02:57:54.845Z,988.16
2018-01-24T02:58:54.806Z,988.15
2018-01-24T02:59:54.736Z,988.18
2018-01-24T03:00:54.704Z,988.20
2018-01-24T03:01:55.139Z,988.17
2018-01-24T03:02:54.607Z,988.17
2018-01-24T03:03:54.565Z,988.09
2018-01-24T03:04:54.528Z,988.09
2018-01-24T03:05:54.474Z,988.10
2018-01-24T03:06:54.449Z,988.14
2018-01-24T03:07:54.392Z,988.15
2018-01-24T03:08:54.325Z,988.11
2018-01-24T03:09:54.288Z,988.06
2018-01-24T03:10:54.250Z,988.04
2018-01-24T03:11:54.222Z,988.06
2018-01-24T03:12:54.165Z,988.10
2018-01-24T03:13:54.154Z,988.09
2018-01-24T03:14:54.096Z,988.08
2018-01-24T03:15:54.035Z,988.07
2018-01-24T03:16:53.978Z,988.08
2018-01-24T03:17:53.950Z,988.19
2018-01-24T03:18:53.920Z,988.14
2018-01-24T03:19:53.890Z,988.16
2018-01-24T03:20:53.826Z,988.22
2018-01-24T03:21:53.820Z,988.21
2018-01-24T03:22:53.742Z,988.20
2018-01-24T03:23:53.708Z,988.23
2018-01-24T03:24:53.660Z,988.28
2018-01-24T03:25:53.626Z,988.30
2018-01-24T03:26:53.565Z,988.28
2018-01-24T03:27:53.572Z,988.35
2018-01-24T03:28:53.478Z,988.33
2018-01-24T03:29:53.467Z,988.29
2018-01-24T03:30:53.414Z,988.29
2018-01-24T03:31:53.366Z,988.24
2018-01-24T03:32:53.298Z,988.15
2018-01-24T03:33:53.309Z,988.29
2018-01-24T03:34:53.211Z,988.19
2018-01-24T03:35:53.229Z,988.23
2018-01-24T03:36:53.140Z,988.22
2018-01-24T03:37:53.098Z,988.25
2018-01-24T03:38:53.051Z,988.24
2018-01-24T03:39:53.018Z,988.21
2018-01-24T03:40:52.955Z,988.18
2018-01-24T03:41:52.913Z,988.19
2018-01-24T03:42:52.891Z,988.23
2018-01-24T03:43:52.853Z,988.22
2018-01-24T03:44:52.786Z,988.22
2018-01-24T03:45:52.734Z,988.24
2018-01-24T03:46:52.712Z,988.19
2018-01-24T03:47:52.651Z,988.20
2018-01-24T03:48:52.624Z,988.13
2018-01-24T03:49:52.576Z,988.11
2018-01-24T03:50:52.517Z,988.14
2018-01-24T03:51:52.479Z,988.10
2018-01-24T03:52:52.458Z,988.05
2018-01-24T03:53:52.403Z,988.11
2018-01-24T03:54:52.377Z,988.03
2018-01-24T03:55:52.334Z,988.06
2018-01-24T03:56:52.293Z,988.04
2018-01-24T03:57:52.227Z,988.05
2018-01-24T03:58:52.208Z,988.02
2018-01-24T03:59:52.142Z,988.04
2018-01-24T04:00:52.103Z,987.98
2018-01-24T04:01:52.049Z,987.99
2018-01-24T04:02:52.039Z,987.98
2018-01-24T04:03:51.970Z,988.04
2018-01-24T04:04:51.939Z,988.04
2018-01-24T04:05:51.878Z,988.06
2018-01-24T04:06:51.841Z,988.01
2018-01-24T04:07:51.818Z,988.05
2018-01-24T04:08:51.764Z,988.02
2018-01-24T04:09:51.725Z,988.05
2018-01-24T04:10:51.680Z,988.02
2018-01-24T04:11:51.623Z,988.04
2018-01-24T04:12:51.587Z,988.00
2018-01-24T04:13:51.534Z,987.96
2018-01-24T04:14:51.500Z,988.01
2018-01-24T04:15:51.477Z,988.07
2018-01-24T04:16:51.410Z,987.98
2018-01-24T04:17:51.408Z,988.06
2018-01-24T04:18:51.315Z,988.01
2018-01-24T04:19:51.271Z,987.99
2018-01-24T04:20:51.251Z,987.92
2018-01-24T04:21:51.228Z,987.99
2018-01-24T04:22:51.163Z,987.98
2018-01-24T04:23:51.121Z,987.96
2018-01-24T04:24:51.082Z,987.95
2018-01-24T04:25:51.022Z,987.97
2018-01-24T04:26:50.984Z,987.97
2018-01-24T04:27:50.939Z,988.01
2018-01-24T04:28:50.916Z,988.02
2018-01-24T04:29:50.837Z,987.86
2018-01-24T04:30:50.822Z,988.08
2018-01-24T04:31:50.809Z,987.97
2018-01-24T04:32:50.744Z,987.99
2018-01-24T04:33:50.693Z,987.98
2018-01-24T04:34:50.640Z,987.95
2018-01-24T04:35:50.595Z,987.98
2018-01-24T04:36:50.561Z,987.95
2018-01-24T04:37:50.517Z,987.99
2018-01-24T04:38:50.460Z,988.02
2018-01-24T04:39:50.425Z,988.05
2018-01-24T04:40:50.394Z,988.03
2018-01-24T04:41:50.342Z,988.12
2018-01-24T04:42:50.297Z,988.06
2018-01-24T04:43:50.300Z,988.03
2018-01-24T04:44:50.222Z,988.10
2018-01-24T04:45:50.213Z,988.19
2018-01-24T04:46:50.141Z,988.13
2018-01-24T04:47:50.067Z,988.12
2018-01-24T04:48:50.019Z,988.11
2018-01-24T04:49:50.015Z,988.07
2018-01-24T04:50:49.967Z,988.12
2018-01-24T04:51:49.915Z,988.09
2018-01-24T04:52:49.848Z,988.05
2018-01-24T04:53:49.833Z,988.04
2018-01-24T04:54:49.771Z,988.08
2018-01-24T04:55:49.724Z,988.02
2018-01-24T04:56:49.714Z,988.06
2018-01-24T04:57:49.646Z,988.08
2018-01-24T04:58:49.623Z,988.06
2018-01-24T04:59:49.575Z,987.98
2018-01-24T05:00:49.538Z,987.98
2018-01-24T05:01:49.467Z,988.00
2018-01-24T05:02:49.417Z,987.98
2018-01-24T05:03:49.392Z,987.96
2018-01-24T05:04:49.400Z,987.96
2018-01-24T05:05:49.303Z,987.93
2018-01-24T05:06:49.262Z,987.89
2018-01-24T05:07:49.244Z,987.93
2018-01-24T05:08:49.169Z,987.96
2018-01-24T05:09:49.142Z,987.98
2018-01-24T05:10:49.077Z,988.00
2018-01-24T05:11:49.064Z,988.03
2018-01-24T05:12:48.987Z,988.09
2018-01-24T05:13:48.965Z,988.11
2018-01-24T05:14:48.938Z,988.06
2018-01-24T05:15:48.899Z,988.11
2018-01-24T05:16:48.838Z,988.08
2018-01-24T05:17:48.810Z,988.06
2018-01-24T05:18:48.762Z,988.09
2018-01-24T05:19:48.701Z,988.11
2018-01-24T05:20:48.646Z,988.04
2018-01-24T05:21:48.635Z,988.06
2018-01-24T05:22:48.598Z,988.08
2018-01-24T05:23:48.538Z,988.06
2018-01-24T05:24:48.491Z,988.07
2018-01-24T05:25:48.452Z,988.03
2018-01-24T05:26:48.404Z,988.10
2018-01-24T05:27:48.371Z,988.09
2018-01-24T05:28:48.296Z,988.01
2018-01-24T05:29:48.275Z,988.04
2018-01-24T05:30:48.217Z,988.08
2018-01-24T05:31:48.206Z,988.10
2018-01-24T05:32:48.155Z,988.09
2018-01-24T05:33:48.083Z,988.09
2018-01-24T05:34:48.059Z,988.06
2018-01-24T05:35:48.019Z,988.02
2018-01-24T05:36:47.965Z,988.07
2018-01-24T05:37:47.916Z,988.01
2018-01-24T05:38:47.880Z,988.01
2018-01-24T05:39:47.838Z,988.00
2018-01-24T05:40:47.792Z,988.02
2018-01-24T05:41:47.750Z,988.04
2018-01-24T05:42:47.729Z,988.03
2018-01-24T05:43:47.676Z,988.06
2018-01-24T05:44:47.661Z,988.04
2018-01-24T05:45:47.581Z,988.08
2018-01-24T05:46:47.540Z,988.02
2018-01-24T05:47:47.492Z,988.06
2018-01-24T05:48:47.444Z,988.06
2018-01-24T05:49:47.398Z,988.05
2018-01-24T05:50:47.379Z,988.08
2018-01-24T05:51:47.348Z,988.05
2018-01-24T05:52:47.280Z,988.12
2018-01-24T05:53:47.232Z,988.15
2018-01-24T05:54:47.201Z,988.17
2018-01-24T05:55:47.134Z,988.13
2018-01-24T05:56:47.123Z,988.16
2018-01-24T05:57:47.065Z,988.20
2018-01-24T05:58:47.033Z,988.18
2018-01-24T05:59:46.998Z,988.19
2018-01-24T06:00:46.939Z,988.19
2018-01-24T06:01:46.945Z,988.17
2018-01-24T06:02:46.860Z,988.18
2018-01-24T06:03:46.796Z,988.18
2018-01-24T06:04:46.752Z,988.22
2018-01-24T06:05:46.722Z,988.24
2018-01-24T06:06:46.674Z,988.19
2018-01-24T06:07:46.643Z,988.28
2018-01-24T06:08:46.579Z,988.30
2018-01-24T06:09:46.548Z,988.33
2018-01-24T06:10:46.499Z,988.31
2018-01-24T06:11:46.476Z,988.28
2018-01-24T06:12:46.409Z,988.33
2018-01-24T06:13:46.405Z,988.31
2018-01-24T06:14:46.334Z,988.30
2018-01-24T06:15:46.312Z,988.35
2018-01-24T06:16:46.244Z,988.28
2018-01-24T06:17:46.194Z,988.36
2018-01-24T06:18:46.153Z,988.35
2018-01-24T06:19:46.107Z,988.33
2018-01-24T06:20:46.090Z,988.30
2018-01-24T06:21:46.023Z,988.28
2018-01-24T06:22:45.979Z,988.30
2018-01-24T06:23:45.939Z,988.30
2018-01-24T06:24:45.907Z,988.26
2018-01-24T06:25:45.843Z,988.28
2018-01-24T06:26:45.850Z,988.19
2018-01-24T06:27:45.796Z,988.27
2018-01-24T06:28:45.722Z,988.28
2018-01-24T06:29:45.690Z,988.19
2018-01-24T06:30:45.630Z,988.16
2018-01-24T06:31:45.591Z,988.19
2018-01-24T06:32:45.539Z,988.22
2018-01-24T06:33:45.507Z,988.19
2018-01-24T06:34:45.457Z,988.24
2018-01-24T06:35:45.423Z,988.30
2018-01-24T06:36:45.410Z,988.24
2018-01-24T06:37:45.339Z,988.32
2018-01-24T06:38:45.297Z,988.31
2018-01-24T06:39:45.242Z,988.37
2018-01-24T06:40:45.204Z,988.39
2018-01-24T06:41:45.172Z,988.41
2018-01-24T06:42:45.146Z,988.40
2018-01-24T06:43:45.074Z,988.42
2018-01-24T06:44:45.029Z,988.44
2018-01-24T06:45:44.983Z,988.43
2018-01-24T06:46:44.936Z,988.45
2018-01-24T06:47:44.915Z,988.40
2018-01-24T06:48:44.887Z,988.43
2018-01-24T06:49:44.815Z,988.40
2018-01-24T06:50:44.787Z,988.40
2018-01-24T06:51:44.720Z,988.44
2018-01-24T06:52:44.712Z,988.44
2018-01-24T06:53:44.642Z,988.50
2018-01-24T06:54:44.599Z,988.46
2018-01-24T06:55:44.553Z,988.44
2018-01-24T06:56:44.504Z,988.51
2018-01-24T06:57:44.517Z,988.46
2018-01-24T06:58:44.427Z,988.48
2018-01-24T06:59:44.373Z,988.55
2018-01-24T07:00:44.332Z,988.48
2018-01-24T07:01:44.289Z,988.48
2018-01-24T07:02:44.243Z,988.48
2018-01-24T07:03:44.234Z,988.53
2018-01-24T07:04:44.155Z,988.54
2018-01-24T07:05:44.110Z,988.56
2018-01-24T07:06:44.070Z,988.56
2018-01-24T07:07:44.029Z,988.59
2018-01-24T07:08:43.980Z,988.58
2018-01-24T07:09:43.940Z,988.55
2018-01-24T07:10:43.909Z,988.55
2018-01-24T07:11:43.846Z,988.55
2018-01-24T07:12:43.808Z,988.55
2018-01-24T07:13:43.778Z,988.63
2018-01-24T07:14:43.728Z,988.66
2018-01-24T07:15:43.714Z,988.65
2018-01-24T07:16:43.666Z,988.69
2018-01-24T07:17:43.586Z,988.71
2018-01-24T07:18:43.560Z,988.71
2018-01-24T07:19:43.530Z,988.72
2018-01-24T07:20:43.492Z,988.74
2018-01-24T07:21:43.446Z,988.73
2018-01-24T07:22:43.417Z,988.80
2018-01-24T07:23:43.335Z,988.76
2018-01-24T07:24:43.291Z,988.75
2018-01-24T07:25:43.263Z,988.70
2018-01-24T07:26:43.227Z,988.67
2018-01-24T07:27:43.175Z,988.67
2018-01-24T07:28:43.139Z,988.70
2018-01-24T07:29:43.079Z,988.74
2018-01-24T07:30:43.072Z,988.73
2018-01-24T07:31:42.991Z,988.77
2018-01-24T07:32:42.951Z,988.73
2018-01-24T07:33:42.925Z,988.76
2018-01-24T07:34:42.868Z,988.75
2018-01-24T07:35:42.827Z,988.73
2018-01-24T07:36:42.773Z,988.70
2018-01-24T07:37:42.728Z,988.70
2018-01-24T07:38:42.701Z,988.64
2018-01-24T07:39:42.652Z,988.64
2018-01-24T07:40:42.618Z,988.63
2018-01-24T07:41:42.574Z,988.62
2018-01-24T07:42:42.515Z,988.64
2018-01-24T07:43:42.489Z,988.65
2018-01-24T07:44:42.438Z,988.63
2018-01-24T07:45:42.393Z,988.66
2018-01-24T07:46:42.345Z,988.69
2018-01-24T07:47:42.326Z,988.71
2018-01-24T07:48:42.266Z,988.72
2018-01-24T07:49:42.219Z,988.72
2018-01-24T07:50:42.182Z,988.74
2018-01-24T07:51:42.168Z,988.76
2018-01-24T07:52:42.118Z,988.76
2018-01-24T07:53:42.071Z,988.72
2018-01-24T07:54:42.028Z,988.73
2018-01-24T07:55:41.979Z,988.75
2018-01-24T07:56:41.928Z,988.73
2018-01-24T07:57:41.886Z,988.70
2018-01-24T07:58:41.847Z,988.78
2018-01-24T07:59:41.831Z,988.73
2018-01-24T08:00:41.759Z,988.72
2018-01-24T08:01:41.749Z,988.71
2018-01-24T08:02:41.672Z,988.75
2018-01-24T08:03:41.642Z,988.72
2018-01-24T08:04:41.611Z,988.74
2018-01-24T08:05:41.553Z,988.75
2018-01-24T08:06:41.522Z,988.75
2018-01-24T08:07:41.487Z,988.73
2018-01-24T08:08:41.414Z,988.73
2018-01-24T08:09:41.373Z,988.72
2018-01-24T08:10:41.339Z,988.72
2018-01-24T08:11:41.305Z,988.72
2018-01-24T08:12:41.292Z,988.72
2018-01-24T08:13:41.214Z,988.69
2018-01-24T08:14:41.185Z,988.67
2018-01-24T08:15:41.130Z,988.71
2018-01-24T08:16:41.132Z,988.70
2018-01-24T08:17:41.049Z,988.71
2018-01-24T08:18:41.001Z,988.70
2018-01-24T08:19:40.962Z,988.78
2018-01-24T08:20:40.939Z,988.74
2018-01-24T08:21:40.886Z,988.77
2018-01-24T08:22:40.835Z,988.78
2018-01-24T08:23:40.796Z,988.79
2018-01-24T08:24:40.770Z,988.83
2018-01-24T08:25:40.708Z,988.78
2018-01-24T08:26:40.685Z,988.69
2018-01-24T08:27:40.626Z,988.71
2018-01-24T08:28:40.598Z,988.78
2018-01-24T08:29:40.548Z,988.73
2018-01-24T08:30:40.524Z,988.72
2018-01-24T08:31:40.475Z,988.68
2018-01-24T08:32:40.420Z,988.77
2018-01-24T08:33:40.401Z,988.72
2018-01-24T08:34:40.363Z,988.68
2018-01-24T08:35:40.289Z,988.66
2018-01-24T08:36:40.273Z,988.63
2018-01-24T08:37:40.206Z,988.61
2018-01-24T08:38:40.174Z,988.56
2018-01-24T08:39:40.124Z,988.58
2018-01-24T08:40:40.137Z,988.60
2018-01-24T08:41:40.054Z,988.59
2018-01-24T08:42:40.000Z,988.49
2018-01-24T08:43:39.967Z,988.56
2018-01-24T08:44:39.907Z,988.54
2018-01-24T08:45:39.877Z,988.57
2018-01-24T08:46:39.838Z,988.52
2018-01-24T08:47:39.794Z,988.52
2018-01-24T08:48:39.746Z,988.57
2018-01-24T08:49:39.719Z,988.51
2018-01-24T08:50:39.670Z,988.60
2018-01-24T08:51:39.662Z,988.56
2018-01-24T08:52:39.593Z,988.49
2018-01-24T08:53:39.551Z,988.52
2018-01-24T08:54:39.498Z,988.51
2018-01-24T08:55:39.487Z,988.54
2018-01-24T08:56:39.423Z,988.60
2018-01-24T08:57:39.440Z,988.61
2018-01-24T08:58:39.335Z,988.65
2018-01-24T08:59:39.292Z,988.56
2018-01-24T09:00:39.253Z,988.59
2018-01-24T09:01:39.212Z,988.61
2018-01-24T09:02:39.164Z,988.67
2018-01-24T09:03:39.134Z,988.65
2018-01-24T09:04:39.112Z,988.58
2018-01-24T09:05:39.053Z,988.53
2018-01-24T09:06:39.025Z,988.60
2018-01-24T09:07:38.993Z,988.64
2018-01-24T09:08:38.928Z,988.61
2018-01-24T09:09:38.891Z,988.56
2018-01-24T09:10:38.862Z,988.55
2018-01-24T09:11:38.805Z,988.57
2018-01-24T09:12:38.759Z,988.55
2018-01-24T09:13:38.735Z,988.54
2018-01-24T09:14:38.734Z,988.53
2018-01-24T09:15:38.668Z,988.57
2018-01-24T09:16:38.603Z,988.60
2018-01-24T09:17:38.574Z,988.58
2018-01-24T09:18:38.531Z,988.58
2018-01-24T09:19:38.500Z,988.58
2018-01-24T09:20:38.443Z,988.63
2018-01-24T09:21:38.403Z,988.67
2018-01-24T09:22:38.368Z,988.59
2018-01-24T09:23:38.336Z,988.59
2018-01-24T09:24:38.282Z,988.59
2018-01-24T09:25:38.246Z,988.62
2018-01-24T09:26:38.227Z,988.61
2018-01-24T09:27:38.166Z,988.69
2018-01-24T09:28:38.117Z,988.71
2018-01-24T09:29:38.081Z,988.73
2018-01-24T09:30:38.034Z,988.70
2018-01-24T09:31:38.013Z,988.65
2018-01-24T09:32:37.960Z,988.66
2018-01-24T09:33:37.951Z,988.64
2018-01-24T09:34:37.895Z,988.56
2018-01-24T09:35:37.848Z,988.57
2018-01-24T09:36:37.820Z,988.47
2018-01-24T09:37:37.771Z,988.48
2018-01-24T09:38:37.747Z,988.44
2018-01-24T09:39:37.703Z,988.45
2018-01-24T09:40:37.687Z,988.59
2018-01-24T09:41:37.643Z,988.52
2018-01-24T09:42:37.591Z,988.61
2018-01-24T09:43:37.563Z,988.56
2018-01-24T09:44:37.529Z,988.50
2018-01-24T09:45:37.488Z,988.47
2018-01-24T09:46:37.447Z,988.55
2018-01-24T09:47:37.413Z,988.54
2018-01-24T09:48:37.377Z,988.55
2018-01-24T09:49:37.336Z,988.58
2018-01-24T09:50:37.304Z,988.55
2018-01-24T09:51:37.289Z,988.57
2018-01-24T09:52:37.243Z,988.60
2018-01-24T09:53:37.212Z,988.52
2018-01-24T09:54:37.173Z,988.50
2018-01-24T09:55:37.115Z,988.48
2018-01-24T09:56:37.081Z,988.51
2018-01-24T09:57:37.043Z,988.49
2018-01-24T09:58:37.016Z,988.50
2018-01-24T09:59:36.983Z,988.62
2018-01-24T10:00:36.946Z,988.58
2018-01-24T10:01:36.926Z,988.60
2018-01-24T10:02:36.896Z,988.61
2018-01-24T10:03:36.836Z,988.52
2018-01-24T10:04:36.824Z,988.61
2018-01-24T10:05:36.771Z,988.54
2018-01-24T10:06:36.716Z,988.57
2018-01-24T10:07:36.690Z,988.59
2018-01-24T10:08:36.683Z,988.54
2018-01-24T10:09:36.649Z,988.45
2018-01-24T10:10:36.585Z,988.41
2018-01-24T10:11:36.555Z,988.45
2018-01-24T10:12:36.521Z,988.39
2018-01-24T10:13:36.481Z,988.37
2018-01-24T10:14:36.453Z,988.38
2018-01-24T10:15:36.410Z,988.39
2018-01-24T10:16:36.375Z,988.35
2018-01-24T10:17:36.348Z,988.40
2018-01-24T10:18:36.323Z,988.35
2018-01-24T10:19:36.270Z,988.39
2018-01-24T10:20:36.234Z,988.37
2018-01-24T10:21:36.224Z,988.37
2018-01-24T10:22:36.159Z,988.38
2018-01-24T10:23:36.164Z,988.33
2018-01-24T10:24:36.094Z,988.29
2018-01-24T10:25:36.086Z,988.33
2018-01-24T10:26:36.021Z,988.35
2018-01-24T10:27:35.981Z,988.27
2018-01-24T10:28:35.981Z,988.33
2018-01-24T10:29:35.915Z,988.24
2018-01-24T10:30:35.913Z,988.28
2018-01-24T10:31:35.845Z,988.28
2018-01-24T10:32:35.802Z,988.32
2018-01-24T10:33:35.772Z,988.31
2018-01-24T10:34:35.733Z,988.35
2018-01-24T10:35:35.684Z,988.36
2018-01-24T10:36:35.652Z,988.35
2018-01-24T10:37:35.652Z,988.28
2018-01-24T10:38:35.708Z,988.30
2018-01-24T10:39:35.551Z,988.18
2018-01-24T10:40:35.519Z,988.16
2018-01-24T10:41:35.471Z,988.15
2018-01-24T10:42:35.459Z,988.20
2018-01-24T10:43:35.399Z,988.19
2018-01-24T10:44:35.364Z,988.23
2018-01-24T10:45:35.326Z,988.13
2018-01-24T10:46:35.293Z,988.15
2018-01-24T10:47:35.259Z,988.11
2018-01-24T10:48:35.224Z,988.10
2018-01-24T10:49:35.178Z,988.08
2018-01-24T10:50:35.224Z,988.03
2018-01-24T10:51:35.143Z,988.04
2018-01-24T10:52:35.066Z,988.01
2018-01-24T10:53:35.046Z,988.02
2018-01-24T10:54:34.996Z,987.96
2018-01-24T10:55:34.959Z,987.94
2018-01-24T10:56:34.922Z,988.02
2018-01-24T10:57:34.894Z,987.98
2018-01-24T10:58:34.852Z,987.95
2018-01-24T10:59:34.818Z,987.91
2018-01-24T11:00:34.789Z,987.96
2018-01-24T11:01:34.719Z,987.96
2018-01-24T11:02:34.711Z,987.92
2018-01-24T11:03:34.662Z,987.95
2018-01-24T11:04:34.634Z,987.96
2018-01-24T11:05:34.583Z,987.93
2018-01-24T11:06:34.572Z,987.98
2018-01-24T11:07:34.501Z,987.95
2018-01-24T11:08:34.464Z,987.92
2018-01-24T11:09:34.433Z,987.99
2018-01-24T11:10:34.402Z,987.89
2018-01-24T11:11:34.366Z,987.82
2018-01-24T11:12:34.299Z,987.92
2018-01-24T11:13:34.285Z,987.91
2018-01-24T11:14:34.236Z,987.86
2018-01-24T11:15:34.199Z,987.78
2018-01-24T11:16:34.215Z,987.89
2018-01-24T11:17:34.124Z,987.84
2018-01-24T11:18:34.089Z,987.78
2018-01-24T11:19:34.037Z,987.77
2018-01-24T11:20:34.022Z,987.68
2018-01-24T11:21:33.990Z,987.70
2018-01-24T11:22:33.930Z,987.61
2018-01-24T11:23:33.899Z,987.61
2018-01-24T11:24:33.915Z,987.56
2018-01-24T11:25:33.841Z,987.55
2018-01-24T11:26:33.781Z,987.60
2018-01-24T11:27:33.742Z,987.56
2018-01-24T11:28:33.709Z,987.61
2018-01-24T11:29:33.679Z,987.52
2018-01-24T11:30:33.664Z,987.57
2018-01-24T11:31:33.614Z,987.56
2018-01-24T11:32:33.564Z,987.56
2018-01-24T11:33:33.542Z,987.60
2018-01-24T11:34:33.486Z,987.57
2018-01-24T11:35:33.459Z,987.58
2018-01-24T11:36:33.428Z,987.58
2018-01-24T11:37:33.400Z,987.50
2018-01-24T11:38:33.360Z,987.59
2018-01-24T11:39:33.353Z,987.55
2018-01-24T11:40:33.301Z,987.52
2018-01-24T11:41:33.273Z,987.55
2018-01-24T11:42:33.220Z,987.64
2018-01-24T11:43:33.191Z,987.56
2018-01-24T11:44:33.158Z,987.61
2018-01-24T11:45:33.136Z,987.61
2018-01-24T11:46:33.208Z,987.67
2018-01-24T11:47:33.078Z,987.61
2018-01-24T11:48:33.060Z,987.68
2018-01-24T11:49:33.021Z,987.66
2018-01-24T11:50:32.979Z,987.55
2018-01-24T11:51:32.951Z,987.55
2018-01-24T11:52:32.918Z,987.63
2018-01-24T11:53:32.872Z,987.60
2018-01-24T11:54:32.857Z,987.57
2018-01-24T11:55:32.817Z,987.59
2018-01-24T11:56:32.792Z,987.53
2018-01-24T11:57:32.770Z,987.50
2018-01-24T11:58:32.737Z,987.57
2018-01-24T11:59:32.775Z,987.44
2018-01-24T12:00:32.672Z,987.46
2018-01-24T12:01:32.664Z,987.49
2018-01-24T12:02:32.618Z,987.45
2018-01-24T12:03:32.585Z,987.45
2018-01-24T12:04:32.547Z,987.45
2018-01-24T12:05:32.515Z,987.43
2018-01-24T12:06:32.502Z,987.37
2018-01-24T12:07:32.479Z,987.44
2018-01-24T12:08:32.546Z,987.32
2018-01-24T12:09:32.415Z,987.29
2018-01-24T12:10:32.374Z,987.29
2018-01-24T12:11:32.360Z,987.27
2018-01-24T12:12:32.407Z,987.24
2018-01-24T12:13:32.285Z,987.32
2018-01-24T12:14:32.264Z,987.34
2018-01-24T12:15:32.227Z,987.28
2018-01-24T12:16:32.192Z,987.34
2018-01-24T12:17:32.178Z,987.33
2018-01-24T12:18:32.141Z,987.30
2018-01-24T12:19:32.122Z,987.23
2018-01-24T12:20:32.087Z,987.18
2018-01-24T12:21:32.047Z,987.22
2018-01-24T12:22:32.012Z,987.14
2018-01-24T12:23:31.979Z,987.22
2018-01-24T12:24:32.155Z,987.21
2018-01-24T12:25:31.945Z,987.17
2018-01-24T12:26:31.890Z,987.13
2018-01-24T12:27:31.862Z,987.18